Scotch Plains, New Jersey
Current Conditions -  °F | °C
As of 8:35 PM on Wednesday 26 Nov 2014 (Local Time) from KLDJ Reporting Station
Light Rain Light Rain  
Wind Chill: 31°   Ceiling: 3100
Heat Index: 39°   Visibility: 7mi
Dew Point: 37°   Wind: 12mph
Humidity: 92%   Direction: 340°NNW
Pressure: 29.83"   Gusts: 17mph
Location:  40.65°N, 74.4°W
Report Text: KLDJ 270135Z AUTO 34010G15KT 7SM -RA SCT009 SCT012 OVC031 04/03 A2983 RMK AO2 P0002 T00370025
Loading
Personal Weather Stations






























Interactive Weather Map New forecast layout! Learn more

10-Day Weather Forecast

Advertisements
Track Severe Weather on mobile